createdAt,value
2022-11-16T00:01:48.945Z,94726.38
2022-11-16T00:04:32.092Z,94708.06
2022-11-16T00:07:15.258Z,94710.19
2022-11-16T00:09:59.765Z,94711.00
2022-11-16T00:12:42.772Z,94713.66
2022-11-16T00:15:26.859Z,94713.34
2022-11-16T00:18:09.886Z,94713.53
2022-11-16T00:20:52.987Z,94712.59
2022-11-16T00:23:38.442Z,94714.53
2022-11-16T00:26:23.171Z,94701.41
2022-11-16T00:29:06.194Z,94698.28
2022-11-16T00:31:50.124Z,94707.13
2022-11-16T00:34:33.179Z,94700.59
2022-11-16T00:37:16.196Z,94689.06
2022-11-16T00:39:59.213Z,94691.94
2022-11-16T00:42:43.571Z,94698.88
2022-11-16T00:45:26.556Z,94694.47
2022-11-16T00:48:09.607Z,94688.72
2022-11-16T00:50:52.760Z,94685.53
2022-11-16T00:53:36.692Z,94679.38
2022-11-16T00:56:19.708Z,94680.22
2022-11-16T00:59:04.166Z,94676.00
2022-11-16T01:01:47.361Z,94674.09
2022-11-16T01:04:30.506Z,94666.34
2022-11-16T01:07:13.566Z,94664.09
2022-11-16T01:09:56.642Z,94659.75
2022-11-16T01:12:39.770Z,94657.13
2022-11-16T01:15:26.995Z,94650.41
2022-11-16T01:18:09.984Z,94648.81
2022-11-16T01:20:54.374Z,94644.78
2022-11-16T01:23:37.402Z,94647.53
2022-11-16T01:26:20.653Z,94645.41
2022-11-16T01:29:03.731Z,94640.94
2022-11-16T01:31:48.178Z,94649.66
2022-11-16T01:34:31.291Z,94645.47
2022-11-16T01:37:14.304Z,94642.34
2022-11-16T01:39:57.446Z,94639.81
2022-11-16T01:42:40.701Z,94638.06
2022-11-16T01:45:32.498Z,94639.63
2022-11-16T01:48:23.314Z,94641.75
2022-11-16T01:51:06.546Z,94645.56
2022-11-16T01:53:49.674Z,94644.03
2022-11-16T01:56:34.042Z,94634.50
2022-11-16T01:59:18.665Z,94637.75
2022-11-16T02:02:02.352Z,94637.56
2022-11-16T02:04:48.874Z,94635.31
2022-11-16T02:08:01.682Z,94635.78
2022-11-16T02:10:59.867Z,94632.91
2022-11-16T02:13:51.656Z,94625.53
2022-11-16T02:16:44.421Z,94622.75
2022-11-16T02:19:52.430Z,94617.16
2022-11-16T02:22:49.537Z,94613.91
2022-11-16T02:25:39.395Z,94611.06
2022-11-16T02:28:34.425Z,94613.91
2022-11-16T02:31:25.860Z,94619.09
2022-11-16T02:34:12.276Z,94619.19
2022-11-16T02:36:58.236Z,94606.72
2022-11-16T02:39:43.095Z,94612.88
2022-11-16T02:42:32.330Z,94615.50
2022-11-16T02:45:21.373Z,94604.66
2022-11-16T02:48:09.775Z,94597.19
2022-11-16T02:50:54.540Z,94590.53
2022-11-16T02:53:42.824Z,94606.13
2022-11-16T02:56:26.729Z,94600.00
2022-11-16T02:59:16.519Z,94596.44
2022-11-16T03:02:14.958Z,94592.44
2022-11-16T03:05:05.788Z,94592.50
2022-11-16T03:07:53.430Z,94594.47
2022-11-16T03:10:57.789Z,94586.56
2022-11-16T03:13:42.742Z,94583.59
2022-11-16T03:16:29.674Z,94588.59
2022-11-16T03:19:15.772Z,94576.47
2022-11-16T03:22:05.024Z,94572.00
2022-11-16T03:24:48.891Z,94578.97
2022-11-16T03:27:40.320Z,94580.88
2022-11-16T03:30:25.658Z,94575.97
2022-11-16T03:33:15.565Z,94581.69
2022-11-16T03:36:04.910Z,94574.97
2022-11-16T03:38:52.874Z,94574.63
2022-11-16T03:41:38.726Z,94564.91
2022-11-16T03:44:22.815Z,94572.28
2022-11-16T03:47:06.011Z,94580.75
2022-11-16T03:49:49.558Z,94571.75
2022-11-16T03:52:32.797Z,94575.50
2022-11-16T03:55:17.382Z,94580.41
2022-11-16T03:58:00.400Z,94575.06
2022-11-16T04:00:43.475Z,94583.66
2022-11-16T04:03:26.546Z,94568.56
2022-11-16T04:06:27.777Z,94556.78
2022-11-16T04:09:28.332Z,94561.75
2022-11-16T04:12:30.080Z,94546.13
2022-11-16T04:15:30.576Z,94545.22
2022-11-16T04:18:31.239Z,94539.69
2022-11-16T04:21:37.488Z,94534.53
2022-11-16T04:24:24.245Z,94530.91
2022-11-16T04:27:27.847Z,94541.22
2022-11-16T04:30:13.556Z,94542.78
2022-11-16T04:33:13.682Z,94544.03
2022-11-16T04:36:17.936Z,94538.97
2022-11-16T04:39:03.676Z,94540.09
2022-11-16T04:42:04.023Z,94530.28
2022-11-16T04:45:04.850Z,94528.91
2022-11-16T04:47:51.317Z,94524.00
2022-11-16T04:50:35.011Z,94527.53
2022-11-16T04:53:18.075Z,94529.91
2022-11-16T04:56:01.224Z,94537.03
2022-11-16T04:58:44.297Z,94533.00
2022-11-16T05:01:41.196Z,94528.94
2022-11-16T05:04:25.730Z,94526.22
2022-11-16T05:07:11.259Z,94525.25
2022-11-16T05:09:54.539Z,94523.88
2022-11-16T05:12:37.655Z,94514.84
2022-11-16T05:15:20.726Z,94522.09
2022-11-16T05:18:03.768Z,94525.78
2022-11-16T05:21:02.433Z,94531.19
2022-11-16T05:24:02.570Z,94520.28
2022-11-16T05:26:45.761Z,94521.00
2022-11-16T05:29:28.882Z,94514.09
2022-11-16T05:32:13.493Z,94532.72
2022-11-16T05:34:56.544Z,94517.72
2022-11-16T05:37:41.198Z,94519.31
2022-11-16T05:40:24.206Z,94513.19
2022-11-16T05:43:07.169Z,94515.00
2022-11-16T05:45:50.178Z,94521.69
2022-11-16T05:48:33.589Z,94520.53
2022-11-16T05:51:16.813Z,94516.38
2022-11-16T05:54:01.356Z,94524.50
2022-11-16T05:56:44.504Z,94523.72
2022-11-16T05:59:27.864Z,94515.38
2022-11-16T06:02:10.861Z,94524.88
2022-11-16T06:04:54.042Z,94526.28
2022-11-16T06:07:37.232Z,94524.69
2022-11-16T06:10:21.729Z,94513.41
2022-11-16T06:13:04.851Z,94520.91
2022-11-16T06:15:53.881Z,94528.44
2022-11-16T06:18:38.852Z,94525.09
2022-11-16T06:21:21.849Z,94516.19
2022-11-16T06:24:09.050Z,94514.03
2022-11-16T06:26:53.669Z,94529.28
2022-11-16T06:29:36.721Z,94528.06
2022-11-16T06:32:19.734Z,94522.72
2022-11-16T06:35:02.787Z,94519.75
2022-11-16T06:37:45.818Z,94527.28
2022-11-16T06:40:28.874Z,94528.47
2022-11-16T06:43:13.404Z,94528.84
2022-11-16T06:45:58.499Z,94528.88
2022-11-16T06:48:41.594Z,94530.06
2022-11-16T06:51:24.574Z,94516.19
2022-11-16T06:54:07.765Z,94509.22
2022-11-16T06:56:50.883Z,94517.13
2022-11-16T06:59:35.566Z,94522.06
2022-11-16T07:02:21.397Z,94520.91
2022-11-16T07:05:04.515Z,94516.53
2022-11-16T07:07:47.593Z,94521.25
2022-11-16T07:10:30.653Z,94514.09
2022-11-16T07:13:13.981Z,94513.09
2022-11-16T07:16:03.864Z,94507.50
2022-11-16T07:18:46.884Z,94508.50
2022-11-16T07:21:30.222Z,94507.63
2022-11-16T07:24:13.268Z,94507.25
2022-11-16T07:26:56.255Z,94506.78
2022-11-16T07:29:39.308Z,94498.78
2022-11-16T07:32:23.765Z,94500.88
2022-11-16T07:35:07.782Z,94498.53
2022-11-16T07:37:50.819Z,94500.38
2022-11-16T07:40:33.837Z,94496.28
2022-11-16T07:43:16.945Z,94485.34
2022-11-16T07:46:30.327Z,94494.88
2022-11-16T07:49:11.328Z,94489.28
2022-11-16T07:51:54.821Z,94492.84
2022-11-16T07:54:38.057Z,94490.22
2022-11-16T07:57:21.097Z,94483.63
2022-11-16T08:00:04.962Z,94487.06
2022-11-16T08:02:47.949Z,94491.25
2022-11-16T08:05:32.453Z,94475.91
2022-11-16T08:08:15.489Z,94484.91
2022-11-16T08:11:01.770Z,94471.50
2022-11-16T08:13:45.088Z,94476.25
2022-11-16T08:16:28.217Z,94464.41
2022-11-16T08:19:11.517Z,94459.66
2022-11-16T08:21:56.038Z,94455.41
2022-11-16T08:24:39.089Z,94452.97
2022-11-16T08:27:22.138Z,94455.06
2022-11-16T08:30:09.898Z,94443.91
2022-11-16T08:32:52.931Z,94440.81
2022-11-16T08:35:36.388Z,94446.19
2022-11-16T08:38:20.838Z,94451.41
2022-11-16T08:41:03.934Z,94442.97
2022-11-16T08:43:50.586Z,94441.03
2022-11-16T08:46:33.786Z,94436.91
2022-11-16T08:49:17.003Z,94436.75
2022-11-16T08:52:00.220Z,94435.91
2022-11-16T08:54:44.655Z,94437.59
2022-11-16T08:57:27.725Z,94438.31
2022-11-16T09:00:12.428Z,94440.19
2022-11-16T09:02:55.478Z,94442.97
2022-11-16T09:05:39.728Z,94439.78
2022-11-16T09:08:22.773Z,94429.38
2022-11-16T09:11:08.408Z,94434.19
2022-11-16T09:13:53.878Z,94428.22
2022-11-16T09:16:36.980Z,94421.81
2022-11-16T09:19:20.623Z,94429.81
2022-11-16T09:22:03.741Z,94418.34
2022-11-16T09:24:46.753Z,94407.03
2022-11-16T09:27:31.306Z,94398.03
2022-11-16T09:30:14.953Z,94396.19
2022-11-16T09:33:00.407Z,94393.53
2022-11-16T09:35:43.600Z,94371.88
2022-11-16T09:38:40.212Z,94375.63
2022-11-16T09:41:53.238Z,94363.78
2022-11-16T09:44:54.367Z,94370.66
2022-11-16T09:47:49.119Z,94359.84
2022-11-16T09:50:46.000Z,94351.75
2022-11-16T09:53:35.379Z,94341.56
2022-11-16T09:56:22.923Z,94341.16
2022-11-16T09:59:17.946Z,94336.03
2022-11-16T10:02:17.104Z,94334.69
2022-11-16T10:05:05.050Z,94325.13
2022-11-16T10:07:52.003Z,94313.56
2022-11-16T10:10:38.966Z,94307.72
2022-11-16T10:13:35.638Z,94307.81
2022-11-16T10:16:24.033Z,94297.22
2022-11-16T10:19:15.935Z,94285.97
2022-11-16T10:22:08.353Z,94277.47
2022-11-16T10:24:58.873Z,94275.97
2022-11-16T10:28:03.127Z,94262.84
2022-11-16T10:30:55.481Z,94265.97
2022-11-16T10:33:41.112Z,94266.41
2022-11-16T10:36:30.158Z,94254.53
2022-11-16T10:39:18.213Z,94264.06
2022-11-16T10:42:07.747Z,94253.97
2022-11-16T10:44:58.849Z,94238.94
2022-11-16T10:47:47.147Z,94250.63
2022-11-16T10:50:38.543Z,94245.75
2022-11-16T10:53:30.175Z,94250.97
2022-11-16T10:56:19.010Z,94237.78
2022-11-16T10:59:04.497Z,94246.72
2022-11-16T11:01:51.090Z,94234.53
2022-11-16T11:04:34.223Z,94231.03
2022-11-16T11:07:29.764Z,94228.13
2022-11-16T11:10:29.684Z,94228.19
2022-11-16T11:13:27.748Z,94212.13
2022-11-16T11:16:16.939Z,94209.63
2022-11-16T11:19:18.797Z,94207.25
2022-11-16T11:22:02.347Z,94195.16
2022-11-16T11:24:49.640Z,94190.63
2022-11-16T11:27:36.766Z,94194.31
2022-11-16T11:30:22.301Z,94200.38
2022-11-16T11:33:12.637Z,94178.00
2022-11-16T11:36:06.863Z,94169.88
2022-11-16T11:38:59.422Z,94181.63
2022-11-16T11:41:47.085Z,94178.75
2022-11-16T11:44:56.839Z,94181.31
2022-11-16T11:47:58.983Z,94180.69
2022-11-16T11:50:49.171Z,94175.22
2022-11-16T11:53:48.236Z,94164.06
2022-11-16T11:56:34.211Z,94156.25
2022-11-16T11:59:21.644Z,94154.91
2022-11-16T12:02:21.975Z,94155.63
2022-11-16T12:05:42.933Z,94141.50
2022-11-16T12:08:40.156Z,94132.69
2022-11-16T12:11:32.345Z,94139.78
2022-11-16T12:14:30.239Z,94143.97
2022-11-16T12:17:20.733Z,94137.03
2022-11-16T12:20:25.987Z,94141.78
2022-11-16T12:23:23.119Z,94131.03
2022-11-16T12:26:16.615Z,94133.31
2022-11-16T12:29:14.303Z,94121.78
2022-11-16T12:32:18.512Z,94123.88
2022-11-16T12:35:27.570Z,94117.56
2022-11-16T12:38:27.612Z,94111.31
2022-11-16T12:41:38.797Z,94099.03
2022-11-16T12:44:33.584Z,94094.13
2022-11-16T12:47:29.140Z,94099.34
2022-11-16T12:50:34.443Z,94097.53
2022-11-16T12:53:52.785Z,94091.53
2022-11-16T12:56:49.078Z,94087.34
2022-11-16T12:59:47.738Z,94084.28
2022-11-16T13:02:54.464Z,94089.50
2022-11-16T13:05:53.754Z,94095.75
2022-11-16T13:08:48.113Z,94080.13
2022-11-16T13:11:35.135Z,94083.75
2022-11-16T13:14:21.176Z,94076.94
2022-11-16T13:17:05.836Z,94092.31
2022-11-16T13:20:16.925Z,94067.00
2022-11-16T13:23:04.169Z,94077.94
2022-11-16T13:25:52.185Z,94076.38
2022-11-16T13:28:41.080Z,94077.63
2022-11-16T13:31:32.818Z,94062.91
2022-11-16T13:34:21.637Z,94058.41
2022-11-16T13:37:45.695Z,94057.91
2022-11-16T13:40:31.224Z,94061.00
2022-11-16T13:43:19.863Z,94059.47
2022-11-16T13:46:02.985Z,94053.25
2022-11-16T13:48:47.535Z,94051.16
2022-11-16T13:51:30.655Z,94065.72
2022-11-16T13:54:44.580Z,94056.63
2022-11-16T13:57:24.392Z,94065.22
2022-11-16T14:00:20.852Z,94071.38
2022-11-16T14:03:27.802Z,94062.56
2022-11-16T14:06:48.113Z,94046.72
2022-11-16T14:09:45.019Z,94065.09
2022-11-16T14:13:00.940Z,94062.00
2022-11-16T14:15:44.004Z,94050.81
2022-11-16T14:18:38.232Z,94047.47
2022-11-16T14:21:39.313Z,94065.03
2022-11-16T14:24:30.263Z,94054.97
2022-11-16T14:27:30.298Z,94032.34
2022-11-16T14:30:20.221Z,94040.06
2022-11-16T14:33:03.724Z,94044.19
2022-11-16T14:35:53.842Z,94036.59
2022-11-16T14:38:39.557Z,94035.25
2022-11-16T14:41:25.888Z,94032.69
2022-11-16T14:44:11.871Z,94027.47
2022-11-16T14:46:55.214Z,94028.97
2022-11-16T14:49:48.266Z,94028.19
2022-11-16T14:52:37.771Z,94024.50
2022-11-16T14:55:22.886Z,94027.78
2022-11-16T14:58:10.285Z,94028.00
2022-11-16T15:00:58.076Z,94032.97
2022-11-16T15:03:49.689Z,94025.16
2022-11-16T15:06:40.215Z,94020.44
2022-11-16T15:09:28.381Z,94017.31
2022-11-16T15:12:33.792Z,94019.00
2022-11-16T15:15:18.827Z,94022.69
2022-11-16T15:18:14.953Z,94016.63
2022-11-16T15:20:57.970Z,94014.59
2022-11-16T15:24:02.131Z,94015.63
2022-11-16T15:26:51.756Z,94012.69
2022-11-16T15:29:34.825Z,94009.84
2022-11-16T15:32:18.973Z,94009.84
2022-11-16T15:35:05.441Z,93992.09
2022-11-16T15:37:48.802Z,94010.66
2022-11-16T15:40:32.081Z,94011.84
2022-11-16T15:43:16.779Z,94006.56
2022-11-16T15:46:00.980Z,93999.59
2022-11-16T15:48:45.115Z,94003.19
2022-11-16T15:51:32.335Z,94002.16
2022-11-16T15:54:22.391Z,94001.84
2022-11-16T15:57:10.303Z,94005.47
2022-11-16T15:59:56.381Z,94008.59
2022-11-16T16:02:39.494Z,94015.94
2022-11-16T16:05:34.788Z,94016.44
2022-11-16T16:08:35.351Z,94018.53
2022-11-16T16:11:29.112Z,94009.81
2022-11-16T16:14:22.387Z,94012.75
2022-11-16T16:17:05.563Z,94018.44
2022-11-16T16:19:56.139Z,94025.69
2022-11-16T16:22:39.288Z,94017.09
2022-11-16T16:25:32.414Z,94025.13
2022-11-16T16:28:15.410Z,94023.03
2022-11-16T16:30:58.438Z,94021.22
2022-11-16T16:33:42.328Z,94013.69
2022-11-16T16:36:25.339Z,94023.25
2022-11-16T16:39:08.585Z,94027.59
2022-11-16T16:41:53.018Z,94027.53
2022-11-16T16:44:36.297Z,94009.41
2022-11-16T16:47:21.331Z,94011.91
2022-11-16T16:50:06.312Z,94017.94
2022-11-16T16:52:49.717Z,94016.22
2022-11-16T16:55:37.252Z,94018.88
2022-11-16T16:58:22.316Z,94028.13
2022-11-16T17:01:06.762Z,94018.91
2022-11-16T17:03:50.603Z,94008.03
2022-11-16T17:06:34.144Z,94006.28
2022-11-16T17:09:17.576Z,94026.91
2022-11-16T17:12:00.662Z,94018.63
2022-11-16T17:14:52.355Z,94011.66
2022-11-16T17:17:37.324Z,94008.50
2022-11-16T17:20:20.452Z,94001.25
2022-11-16T17:23:03.572Z,93997.78
2022-11-16T17:25:46.713Z,93997.28
2022-11-16T17:28:29.978Z,93998.78
2022-11-16T17:31:15.089Z,94006.13
2022-11-16T17:33:58.663Z,94009.31
2022-11-16T17:36:41.668Z,94005.16
2022-11-16T17:39:25.222Z,94002.03
2022-11-16T17:42:09.415Z,94012.34
2022-11-16T17:44:54.261Z,94003.22
2022-11-16T17:47:39.228Z,93990.72
2022-11-16T17:50:22.349Z,94004.28
2022-11-16T17:53:05.736Z,93984.25
2022-11-16T17:55:49.061Z,93969.22
2022-11-16T17:58:32.903Z,93982.06
2022-11-16T18:01:16.084Z,93979.16
2022-11-16T18:04:01.103Z,93972.19
2022-11-16T18:06:45.049Z,93969.59
2022-11-16T18:09:28.392Z,93967.81
2022-11-16T18:12:11.478Z,93981.50
2022-11-16T18:15:21.296Z,93969.53
2022-11-16T18:17:57.943Z,93978.59
2022-11-16T18:20:42.507Z,93975.56
2022-11-16T18:23:25.506Z,93963.41
2022-11-16T18:26:09.996Z,93965.44
2022-11-16T18:28:53.945Z,93969.69
2022-11-16T18:31:37.043Z,93949.69
2022-11-16T18:34:20.425Z,93957.44
2022-11-16T18:37:04.945Z,93971.09
2022-11-16T18:39:48.039Z,93949.78
2022-11-16T18:42:31.120Z,93958.19
2022-11-16T18:45:14.156Z,93964.16
2022-11-16T18:47:57.244Z,93957.06
2022-11-16T18:50:40.280Z,93943.09
2022-11-16T18:53:25.076Z,93947.66
2022-11-16T18:56:09.024Z,93958.81
2022-11-16T18:58:53.109Z,93955.44
2022-11-16T19:01:36.524Z,93951.25
2022-11-16T19:04:19.586Z,93960.19
2022-11-16T19:07:02.745Z,93950.53
2022-11-16T19:09:47.390Z,93969.88
2022-11-16T19:12:30.722Z,93959.03
2022-11-16T19:15:14.258Z,93962.09
2022-11-16T19:18:19.883Z,93961.63
2022-11-16T19:21:07.715Z,93964.09
2022-11-16T19:23:52.167Z,93966.47
2022-11-16T19:26:36.613Z,93943.94
2022-11-16T19:29:19.659Z,93961.69
2022-11-16T19:32:02.788Z,93951.88
2022-11-16T19:34:45.786Z,93967.72
2022-11-16T19:37:29.258Z,93966.50
2022-11-16T19:40:13.478Z,93957.84
2022-11-16T19:42:58.410Z,93957.09
2022-11-16T19:45:42.479Z,93953.63
2022-11-16T19:48:25.510Z,93953.25
2022-11-16T19:51:09.932Z,93968.84
2022-11-16T19:53:53.245Z,93972.56
2022-11-16T19:56:36.290Z,93988.09
2022-11-16T19:59:20.980Z,93953.91
2022-11-16T20:02:04.239Z,93964.38
2022-11-16T20:04:47.438Z,93946.63
2022-11-16T20:07:30.651Z,93942.41
2022-11-16T20:10:13.789Z,93951.75
2022-11-16T20:12:56.923Z,93942.03
2022-11-16T20:15:41.397Z,93938.16
2022-11-16T20:18:24.547Z,93939.53
2022-11-16T20:21:08.717Z,93946.91
2022-11-16T20:23:52.701Z,93943.16
2022-11-16T20:26:37.625Z,93933.38
2022-11-16T20:29:21.047Z,93931.03
2022-11-16T20:32:05.624Z,93927.53
2022-11-16T20:34:48.652Z,93926.03
2022-11-16T20:37:31.650Z,93914.69
2022-11-16T20:40:15.631Z,93896.94
2022-11-16T20:43:00.255Z,93888.16
2022-11-16T20:45:43.354Z,93888.56
2022-11-16T20:48:27.780Z,93895.69
2022-11-16T20:51:12.774Z,93892.25
2022-11-16T20:53:56.223Z,93892.72
2022-11-16T20:56:39.296Z,93883.97
2022-11-16T20:59:22.289Z,93890.69
2022-11-16T21:02:05.405Z,93892.25
2022-11-16T21:04:49.836Z,93866.94
2022-11-16T21:07:32.958Z,93896.53
2022-11-16T21:10:21.936Z,93880.19
2022-11-16T21:13:22.552Z,93882.31
2022-11-16T21:16:08.205Z,93896.53
2022-11-16T21:18:51.283Z,93879.63
2022-11-16T21:21:35.923Z,93875.78
2022-11-16T21:24:18.924Z,93876.69
2022-11-16T21:27:01.914Z,93883.97
2022-11-16T21:29:44.966Z,93879.34
2022-11-16T21:32:28.022Z,93877.31
2022-11-16T21:35:11.023Z,93865.13
2022-11-16T21:37:55.400Z,93873.19
2022-11-16T21:40:38.961Z,93871.16
2022-11-16T21:43:22.182Z,93857.16
2022-11-16T21:46:06.742Z,93863.69
2022-11-16T21:48:51.316Z,93862.91
2022-11-16T21:51:34.941Z,93864.44
2022-11-16T21:54:19.481Z,93864.63
2022-11-16T21:57:02.709Z,93865.69
2022-11-16T21:59:45.726Z,93850.34
2022-11-16T22:02:28.740Z,93851.41
2022-11-16T22:05:29.203Z,93853.81
2022-11-16T22:08:12.780Z,93844.66
2022-11-16T22:10:57.220Z,93843.03
2022-11-16T22:13:40.690Z,93840.63
2022-11-16T22:16:24.381Z,93840.41
2022-11-16T22:19:07.408Z,93839.91
2022-11-16T22:21:50.392Z,93839.44
2022-11-16T22:24:33.494Z,93824.66
2022-11-16T22:27:18.905Z,93833.03
2022-11-16T22:30:01.873Z,93820.97
2022-11-16T22:32:46.028Z,93829.59
2022-11-16T22:35:29.068Z,93814.34
2022-11-16T22:38:12.068Z,93824.06
2022-11-16T22:40:56.984Z,93815.78
2022-11-16T22:43:41.624Z,93809.63
2022-11-16T22:46:24.828Z,93803.06
2022-11-16T22:49:07.918Z,93790.47
2022-11-16T22:51:51.011Z,93775.94
2022-11-16T22:54:34.703Z,93781.44
2022-11-16T22:57:17.693Z,93773.19
2022-11-16T23:00:02.143Z,93795.47
2022-11-16T23:02:45.293Z,93761.38
2022-11-16T23:05:28.361Z,93790.25
2022-11-16T23:08:11.344Z,93785.47
2022-11-16T23:11:18.723Z,93788.69
2022-11-16T23:14:20.146Z,93780.91
2022-11-16T23:17:05.092Z,93792.72
2022-11-16T23:20:05.750Z,93783.97
2022-11-16T23:23:06.104Z,93787.56
2022-11-16T23:26:06.579Z,93775.47
2022-11-16T23:28:49.592Z,93802.41
2022-11-16T23:31:32.626Z,93778.69
2022-11-16T23:34:16.993Z,93766.38
2022-11-16T23:37:03.486Z,93777.22
2022-11-16T23:39:46.482Z,93765.63
2022-11-16T23:42:47.243Z,93794.22
2022-11-16T23:45:30.256Z,93745.16
2022-11-16T23:48:16.041Z,93759.72
2022-11-16T23:51:00.498Z,93759.63
2022-11-16T23:53:43.482Z,93758.72
2022-11-16T23:56:26.518Z,93788.91
2022-11-16T23:59:09.580Z,93735.22
